createdAt,value
2023-04-15T00:00:30.222Z,73.50
2023-04-15T00:02:58.317Z,73.17
2023-04-15T00:05:26.470Z,72.80
2023-04-15T00:07:54.745Z,72.44
2023-04-15T00:10:24.514Z,71.94
2023-04-15T00:12:53.355Z,71.63
2023-04-15T00:15:22.500Z,71.41
2023-04-15T00:17:52.585Z,71.32
2023-04-15T00:20:21.250Z,71.69
2023-04-15T00:22:49.265Z,71.83
2023-04-15T00:25:17.509Z,71.67
2023-04-15T00:27:47.386Z,71.81
2023-04-15T00:30:17.220Z,71.66
2023-04-15T00:32:45.196Z,72.44
2023-04-15T00:35:13.938Z,72.80
2023-04-15T00:37:44.811Z,72.29
2023-04-15T00:40:14.780Z,72.15
2023-04-15T00:42:42.849Z,72.24
2023-04-15T00:45:13.105Z,72.18
2023-04-15T00:47:42.929Z,72.78
2023-04-15T00:50:12.632Z,72.65
2023-04-15T00:52:41.173Z,72.84
2023-04-15T00:55:10.556Z,72.57
2023-04-15T00:57:38.368Z,72.36
2023-04-15T01:00:09.426Z,72.77
2023-04-15T01:02:39.636Z,73.42
2023-04-15T01:05:08.711Z,73.23
2023-04-15T01:07:36.858Z,73.00
2023-04-15T01:10:05.228Z,73.06
2023-04-15T01:12:34.375Z,73.10
2023-04-15T01:15:03.759Z,73.28
2023-04-15T01:17:32.069Z,74.07
2023-04-15T01:20:01.783Z,74.31
2023-04-15T01:22:31.983Z,74.67
2023-04-15T01:25:08.321Z,74.31
2023-04-15T01:27:41.236Z,74.68
2023-04-15T01:30:11.775Z,74.56
2023-04-15T01:32:40.148Z,74.65
2023-04-15T01:35:09.058Z,74.43
2023-04-15T01:37:38.176Z,74.61
2023-04-15T01:40:08.062Z,74.63
2023-04-15T01:42:39.200Z,74.94
2023-04-15T01:45:08.433Z,75.13
2023-04-15T01:47:39.421Z,75.99
2023-04-15T01:50:08.629Z,76.41
2023-04-15T01:52:36.748Z,76.77
2023-04-15T01:55:06.368Z,76.68
2023-04-15T01:57:34.530Z,76.56
2023-04-15T02:00:04.652Z,76.50
2023-04-15T02:02:41.673Z,77.22
2023-04-15T02:05:11.158Z,77.77
2023-04-15T02:07:39.303Z,78.26
2023-04-15T02:10:07.989Z,78.63
2023-04-15T02:12:37.189Z,78.95
2023-04-15T02:15:08.270Z,79.47
2023-04-15T02:17:37.466Z,80.73
2023-04-15T02:20:07.102Z,81.22
2023-04-15T02:22:35.450Z,80.80
2023-04-15T02:25:03.749Z,80.67
2023-04-15T02:27:33.688Z,80.36
2023-04-15T02:30:01.889Z,80.08
2023-04-15T02:32:31.689Z,81.28
2023-04-15T02:35:05.635Z,80.41
2023-04-15T02:37:37.187Z,79.97
2023-04-15T02:40:06.684Z,79.15
2023-04-15T02:42:34.884Z,78.87
2023-04-15T02:45:03.486Z,78.13
2023-04-15T02:47:36.990Z,79.20
2023-04-15T02:50:08.167Z,79.18
2023-04-15T02:52:36.318Z,78.52
2023-04-15T02:55:05.290Z,78.49
2023-04-15T02:57:33.579Z,79.69
2023-04-15T03:00:09.776Z,79.89
2023-04-15T03:02:42.301Z,79.56
2023-04-15T03:05:14.021Z,80.93
2023-04-15T03:07:48.414Z,80.60
2023-04-15T03:10:16.874Z,80.97
2023-04-15T03:12:45.005Z,80.81
2023-04-15T03:15:18.692Z,79.77
2023-04-15T03:17:52.193Z,79.59
2023-04-15T03:20:20.666Z,79.37
2023-04-15T03:22:49.872Z,79.75
2023-04-15T03:25:19.904Z,79.49
2023-04-15T03:27:48.577Z,79.59
2023-04-15T03:30:19.107Z,79.63
2023-04-15T03:32:47.696Z,79.76
2023-04-15T03:35:17.774Z,80.73
2023-04-15T03:37:45.990Z,81.08
2023-04-15T03:40:14.694Z,81.97
2023-04-15T03:42:42.792Z,81.80
2023-04-15T03:45:11.860Z,82.05
2023-04-15T03:47:39.994Z,82.33
2023-04-15T03:50:09.444Z,82.52
2023-04-15T03:52:38.809Z,82.85
2023-04-15T03:55:06.994Z,82.51
2023-04-15T03:57:38.130Z,82.52
2023-04-15T04:00:07.361Z,82.60
2023-04-15T04:02:40.198Z,83.00
2023-04-15T04:05:09.029Z,82.97
2023-04-15T04:07:38.624Z,83.02
2023-04-15T04:10:07.957Z,83.03
2023-04-15T04:12:36.028Z,83.35
2023-04-15T04:15:04.090Z,83.11
2023-04-15T04:17:32.246Z,84.04
2023-04-15T04:20:00.243Z,83.92
2023-04-15T04:22:28.404Z,83.97
2023-04-15T04:24:59.428Z,84.16
2023-04-15T04:27:27.445Z,84.15
2023-04-15T04:29:55.612Z,84.36
2023-04-15T04:32:23.735Z,84.33
2023-04-15T04:34:52.418Z,84.42
2023-04-15T04:37:20.398Z,84.34
2023-04-15T04:39:48.497Z,83.84
2023-04-15T04:42:17.907Z,83.28
2023-04-15T04:44:45.790Z,82.91
2023-04-15T04:47:14.171Z,82.78
2023-04-15T04:49:42.404Z,82.55
2023-04-15T04:52:10.404Z,82.64
2023-04-15T04:54:38.424Z,83.08
2023-04-15T04:57:08.032Z,83.62
2023-04-15T04:59:38.095Z,83.35
2023-04-15T05:02:06.420Z,83.51
2023-04-15T05:04:34.994Z,83.63
2023-04-15T05:07:03.265Z,83.82
2023-04-15T05:09:32.544Z,83.71
2023-04-15T05:12:01.471Z,83.61
2023-04-15T05:14:29.455Z,84.29
2023-04-15T05:16:59.184Z,84.15
2023-04-15T05:19:27.334Z,83.75
2023-04-15T05:21:55.416Z,83.80
2023-04-15T05:24:23.582Z,83.66
2023-04-15T05:26:51.549Z,83.27
2023-04-15T05:29:21.757Z,80.83
2023-04-15T05:31:49.791Z,79.53
2023-04-15T05:34:19.446Z,77.88
2023-04-15T05:36:47.674Z,77.30
2023-04-15T05:39:16.304Z,76.22
2023-04-15T05:41:44.315Z,76.06
2023-04-15T05:44:12.428Z,75.65
2023-04-15T05:46:40.555Z,76.02
2023-04-15T05:49:08.622Z,75.78
2023-04-15T05:51:38.198Z,75.77
2023-04-15T05:54:07.107Z,75.65
2023-04-15T05:56:35.238Z,75.63
2023-04-15T05:59:03.982Z,75.86
2023-04-15T06:01:32.173Z,75.73
2023-04-15T06:04:00.322Z,76.02
2023-04-15T06:06:28.751Z,75.42
2023-04-15T06:08:58.348Z,75.07
2023-04-15T06:11:27.037Z,74.29
2023-04-15T06:13:55.533Z,73.94
2023-04-15T06:16:24.097Z,73.27
2023-04-15T06:18:52.401Z,72.08
2023-04-15T06:21:21.080Z,70.95
2023-04-15T06:23:49.146Z,69.91
2023-04-15T06:26:18.653Z,69.33
2023-04-15T06:28:46.688Z,67.92
2023-04-15T06:31:14.802Z,66.02
2023-04-15T06:33:42.914Z,64.79
2023-04-15T06:36:11.031Z,62.90
2023-04-15T06:38:39.345Z,59.16
2023-04-15T06:41:07.975Z,57.86
2023-04-15T06:43:38.225Z,56.61
2023-04-15T06:46:07.341Z,55.08
2023-04-15T06:48:37.389Z,54.18
2023-04-15T06:51:06.246Z,55.32
2023-04-15T06:53:35.847Z,54.31
2023-04-15T06:56:04.023Z,50.82
2023-04-15T06:58:32.400Z,49.37
2023-04-15T07:01:02.146Z,50.79
2023-04-15T07:03:32.642Z,50.10
2023-04-15T07:06:01.742Z,50.45
2023-04-15T07:08:29.892Z,52.42
2023-04-15T07:10:58.031Z,51.63
2023-04-15T07:13:26.151Z,52.11
2023-04-15T07:15:54.157Z,51.17
2023-04-15T07:18:23.873Z,49.63
2023-04-15T07:20:52.289Z,48.32
2023-04-15T07:23:21.625Z,47.07
2023-04-15T07:25:50.392Z,46.09
2023-04-15T07:28:18.561Z,44.42
2023-04-15T07:30:46.948Z,43.00
2023-04-15T07:33:15.183Z,42.78
2023-04-15T07:35:45.180Z,43.18
2023-04-15T07:38:13.785Z,42.49
2023-04-15T07:40:42.455Z,42.00
2023-04-15T07:43:10.861Z,43.46
2023-04-15T07:45:38.951Z,44.29
2023-04-15T07:48:08.536Z,44.06
2023-04-15T07:50:36.647Z,43.93
2023-04-15T07:53:07.334Z,45.56
2023-04-15T07:55:35.465Z,47.83
2023-04-15T07:58:03.726Z,46.64
2023-04-15T08:00:32.296Z,45.75
2023-04-15T08:03:00.630Z,44.16
2023-04-15T08:05:28.960Z,43.67
2023-04-15T08:07:57.382Z,42.51
2023-04-15T08:10:27.458Z,48.55
2023-04-15T08:12:56.647Z,47.46
2023-04-15T08:15:24.823Z,46.19
2023-04-15T08:17:53.284Z,48.66
2023-04-15T08:20:21.621Z,47.17
2023-04-15T08:22:52.250Z,50.92
2023-04-15T08:25:21.622Z,53.19
2023-04-15T08:27:52.308Z,52.33
2023-04-15T08:30:20.648Z,51.82
2023-04-15T08:32:48.893Z,54.16
2023-04-15T08:35:17.288Z,52.11
2023-04-15T08:37:45.485Z,51.21
2023-04-15T08:40:14.250Z,49.65
2023-04-15T08:42:45.739Z,48.36
2023-04-15T08:45:15.511Z,47.29
2023-04-15T08:47:45.398Z,48.09
2023-04-15T08:50:13.961Z,47.67
2023-04-15T08:52:42.564Z,51.43
2023-04-15T08:55:12.591Z,51.60
2023-04-15T08:57:40.753Z,50.34
2023-04-15T09:00:10.521Z,52.67
2023-04-15T09:02:40.394Z,51.94
2023-04-15T09:05:09.685Z,52.21
2023-04-15T09:07:37.903Z,55.96
2023-04-15T09:10:06.612Z,55.05
2023-04-15T09:12:36.986Z,56.27
2023-04-15T09:15:06.193Z,54.57
2023-04-15T09:17:35.153Z,54.67
2023-04-15T09:20:13.224Z,53.40
2023-04-15T09:22:42.351Z,53.57
2023-04-15T09:25:25.482Z,51.28
2023-04-15T09:27:55.353Z,51.48
2023-04-15T09:30:23.884Z,51.30
2023-04-15T09:32:53.487Z,51.80
2023-04-15T09:35:23.909Z,49.04
2023-04-15T09:37:52.647Z,45.86
2023-04-15T09:40:32.826Z,46.99
2023-04-15T09:43:02.319Z,48.46
2023-04-15T09:45:31.147Z,51.84
2023-04-15T09:47:59.998Z,51.22
2023-04-15T09:50:31.219Z,53.63
2023-04-15T09:52:59.881Z,52.95
2023-04-15T09:55:28.053Z,49.68
2023-04-15T09:57:56.064Z,49.25
2023-04-15T10:00:31.924Z,49.63
2023-04-15T10:03:00.680Z,49.48
2023-04-15T10:05:31.938Z,44.77
2023-04-15T10:08:00.865Z,43.49
2023-04-15T10:10:29.147Z,45.59
2023-04-15T10:12:57.837Z,45.21
2023-04-15T10:15:26.443Z,46.42
2023-04-15T10:17:56.008Z,46.74
2023-04-15T10:20:24.508Z,48.36
2023-04-15T10:22:54.516Z,47.13
2023-04-15T10:25:23.542Z,45.01
2023-04-15T10:27:53.019Z,46.65
2023-04-15T10:30:21.875Z,45.75
2023-04-15T10:32:51.628Z,45.77
2023-04-15T10:35:20.765Z,45.65
2023-04-15T10:37:49.053Z,47.48
2023-04-15T10:40:31.725Z,47.72
2023-04-15T10:43:01.705Z,49.77
2023-04-15T10:45:35.006Z,49.70
2023-04-15T10:48:04.902Z,53.32
2023-04-15T10:50:34.027Z,55.83
2023-04-15T10:53:05.278Z,53.06
2023-04-15T10:55:36.686Z,51.76
2023-04-15T10:58:06.194Z,50.16
2023-04-15T11:00:35.919Z,50.94
2023-04-15T11:03:08.318Z,52.78
2023-04-15T11:06:01.526Z,53.17
2023-04-15T11:08:58.923Z,51.66
2023-04-15T11:12:04.935Z,52.85
2023-04-15T11:14:36.839Z,56.39
2023-04-15T11:17:05.707Z,55.23
2023-04-15T11:19:39.201Z,52.67
2023-04-15T11:22:10.856Z,50.16
2023-04-15T11:24:48.744Z,50.61
2023-04-15T11:27:23.398Z,49.50
2023-04-15T11:29:53.326Z,51.96
2023-04-15T11:32:23.263Z,51.95
2023-04-15T11:34:53.749Z,52.27
2023-04-15T11:37:30.092Z,53.79
2023-04-15T11:39:58.668Z,53.76
2023-04-15T11:42:31.558Z,53.46
2023-04-15T11:45:13.795Z,54.36
2023-04-15T11:47:42.989Z,54.13
2023-04-15T11:50:28.654Z,54.60
2023-04-15T11:52:58.029Z,53.80
2023-04-15T11:55:27.463Z,54.09
2023-04-15T11:58:09.471Z,56.82
2023-04-15T12:00:39.900Z,56.16
2023-04-15T12:03:15.722Z,55.04
2023-04-15T12:06:10.494Z,54.76
2023-04-15T12:08:58.507Z,55.08
2023-04-15T12:11:35.423Z,53.51
2023-04-15T12:14:12.794Z,54.48
2023-04-15T12:16:46.650Z,55.85
2023-04-15T12:19:20.320Z,55.67
2023-04-15T12:21:49.839Z,56.13
2023-04-15T12:24:22.209Z,56.69
2023-04-15T12:26:52.043Z,55.64
2023-04-15T12:29:22.356Z,56.30
2023-04-15T12:31:57.223Z,55.56
2023-04-15T12:34:30.494Z,55.72
2023-04-15T12:36:59.903Z,57.46
2023-04-15T12:39:30.857Z,58.35
2023-04-15T12:42:00.453Z,58.24
2023-04-15T12:44:29.984Z,58.89
2023-04-15T12:47:00.170Z,58.91
2023-04-15T12:49:29.731Z,59.17
2023-04-15T12:51:59.609Z,57.52
2023-04-15T12:54:28.115Z,57.03
2023-04-15T12:56:56.784Z,56.01
2023-04-15T12:59:25.499Z,55.31
2023-04-15T13:01:55.797Z,55.78
2023-04-15T13:04:25.762Z,55.87
2023-04-15T13:06:54.265Z,54.70
2023-04-15T13:09:23.241Z,55.20
2023-04-15T13:11:52.939Z,57.82
2023-04-15T13:14:21.456Z,57.00
2023-04-15T13:16:50.000Z,57.37
2023-04-15T13:19:18.304Z,58.17
2023-04-15T13:21:48.600Z,58.53
2023-04-15T13:24:16.754Z,58.38
2023-04-15T13:26:44.964Z,58.01
2023-04-15T13:29:14.211Z,57.24
2023-04-15T13:31:42.244Z,57.04
2023-04-15T13:34:10.394Z,57.73
2023-04-15T13:36:38.836Z,58.30
2023-04-15T13:39:08.487Z,56.86
2023-04-15T13:41:37.536Z,57.20
2023-04-15T13:44:06.530Z,56.80
2023-04-15T13:46:35.029Z,56.77
2023-04-15T13:49:03.187Z,56.28
2023-04-15T13:51:31.922Z,56.32
2023-04-15T13:54:00.072Z,56.45
2023-04-15T13:56:32.266Z,57.25
2023-04-15T13:59:02.382Z,57.31
2023-04-15T14:01:30.351Z,58.45
2023-04-15T14:03:58.621Z,58.00
2023-04-15T14:06:27.303Z,58.24
2023-04-15T14:08:56.281Z,58.59
2023-04-15T14:11:24.497Z,58.60
2023-04-15T14:13:54.419Z,57.38
2023-04-15T14:16:22.761Z,57.81
2023-04-15T14:18:51.050Z,59.17
2023-04-15T14:21:19.085Z,59.59
2023-04-15T14:23:47.660Z,60.06
2023-04-15T14:26:15.726Z,59.77
2023-04-15T14:28:45.138Z,59.46
2023-04-15T14:31:15.656Z,59.17
2023-04-15T14:33:43.694Z,59.21
2023-04-15T14:36:12.017Z,59.00
2023-04-15T14:38:41.167Z,58.68
2023-04-15T14:41:09.965Z,59.36
2023-04-15T14:43:39.887Z,60.03
2023-04-15T14:46:08.704Z,59.43
2023-04-15T14:48:39.768Z,59.52
2023-04-15T14:51:08.643Z,59.17
2023-04-15T14:53:37.261Z,59.71
2023-04-15T14:56:05.768Z,59.33
2023-04-15T14:58:36.380Z,60.14
2023-04-15T15:01:05.667Z,60.76
2023-04-15T15:03:34.563Z,60.24
2023-04-15T15:06:04.596Z,60.16
2023-04-15T15:08:32.967Z,60.68
2023-04-15T15:11:01.237Z,60.72
2023-04-15T15:13:29.486Z,60.89
2023-04-15T15:15:58.653Z,61.07
2023-04-15T15:18:26.785Z,61.47
2023-04-15T15:20:54.886Z,61.46
2023-04-15T15:23:24.480Z,61.36
2023-04-15T15:25:52.614Z,62.51
2023-04-15T15:28:21.819Z,62.81
2023-04-15T15:30:49.720Z,62.16
2023-04-15T15:33:18.096Z,62.15
2023-04-15T15:35:48.525Z,62.28
2023-04-15T15:38:17.071Z,62.55
2023-04-15T15:40:46.731Z,62.24
2023-04-15T15:43:14.806Z,61.97
2023-04-15T15:45:42.903Z,61.85
2023-04-15T15:48:11.178Z,61.69
2023-04-15T15:50:39.499Z,61.63
2023-04-15T15:53:08.838Z,62.11
2023-04-15T15:55:36.864Z,61.82
2023-04-15T15:58:06.803Z,61.99
2023-04-15T16:00:35.247Z,62.33
2023-04-15T16:03:07.222Z,61.75
2023-04-15T16:05:36.175Z,61.63
2023-04-15T16:08:04.716Z,62.15
2023-04-15T16:10:33.379Z,62.95
2023-04-15T16:13:02.213Z,62.49
2023-04-15T16:15:32.419Z,62.33
2023-04-15T16:18:02.794Z,62.52
2023-04-15T16:20:31.112Z,62.85
2023-04-15T16:22:59.995Z,63.56
2023-04-15T16:25:28.301Z,63.73
2023-04-15T16:28:03.484Z,64.70
2023-04-15T16:30:41.811Z,64.90
2023-04-15T16:33:10.827Z,65.12
2023-04-15T16:35:38.932Z,65.19
2023-04-15T16:38:07.119Z,65.04
2023-04-15T16:40:35.393Z,65.08
2023-04-15T16:43:04.601Z,65.21
2023-04-15T16:45:32.955Z,65.54
2023-04-15T16:48:02.502Z,65.41
2023-04-15T16:50:31.591Z,65.64
2023-04-15T16:52:59.709Z,66.14
2023-04-15T16:55:28.388Z,66.06
2023-04-15T16:58:02.172Z,66.23
2023-04-15T17:00:33.352Z,66.50
2023-04-15T17:03:04.058Z,67.00
2023-04-15T17:05:32.376Z,67.20
2023-04-15T17:08:00.525Z,67.13
2023-04-15T17:10:29.580Z,67.44
2023-04-15T17:12:58.269Z,67.68
2023-04-15T17:15:27.468Z,67.84
2023-04-15T17:17:56.072Z,68.20
2023-04-15T17:20:26.665Z,68.54
2023-04-15T17:22:54.992Z,67.99
2023-04-15T17:25:24.369Z,68.33
2023-04-15T17:27:52.780Z,68.66
2023-04-15T17:30:22.346Z,68.86
2023-04-15T17:32:52.412Z,69.21
2023-04-15T17:35:21.215Z,69.67
2023-04-15T17:37:52.077Z,69.91
2023-04-15T17:40:20.539Z,70.66
2023-04-15T17:42:49.273Z,70.86
2023-04-15T17:45:18.387Z,70.96
2023-04-15T17:47:46.909Z,71.34
2023-04-15T17:50:26.815Z,71.80
2023-04-15T17:52:58.050Z,72.10
2023-04-15T17:55:26.343Z,72.69
2023-04-15T17:57:54.576Z,72.68
2023-04-15T18:00:23.466Z,72.46
2023-04-15T18:02:51.858Z,72.88
2023-04-15T18:05:20.329Z,73.26
2023-04-15T18:07:49.273Z,73.11
2023-04-15T18:10:34.359Z,73.73
2023-04-15T18:13:03.663Z,74.37
2023-04-15T18:15:31.920Z,74.68
2023-04-15T18:18:00.973Z,75.11
2023-04-15T18:20:30.307Z,75.41
2023-04-15T18:22:58.511Z,75.97
2023-04-15T18:28:33.332Z,75.99
2023-04-15T18:31:01.652Z,76.09
2023-04-15T18:33:29.889Z,76.41
2023-04-15T18:35:59.247Z,76.54
2023-04-15T18:38:27.686Z,77.02
2023-04-15T18:40:57.232Z,77.21
2023-04-15T18:43:25.475Z,77.43
2023-04-15T18:45:54.733Z,77.81
2023-04-15T18:51:32.669Z,78.46
2023-04-15T18:54:00.797Z,78.78
2023-04-15T18:56:31.316Z,79.14
2023-04-15T18:59:08.586Z,79.26
2023-04-15T19:01:47.899Z,79.49
2023-04-15T19:04:19.040Z,79.18
2023-04-15T19:06:48.338Z,79.89
2023-04-15T19:09:17.226Z,80.21
2023-04-15T19:11:47.763Z,80.18
2023-04-15T19:14:16.125Z,80.43
2023-04-15T19:16:47.316Z,80.42
2023-04-15T19:19:15.874Z,80.87
2023-04-15T19:21:45.561Z,80.97
2023-04-15T19:24:13.647Z,80.78
2023-04-15T19:26:41.908Z,81.27
2023-04-15T19:29:11.477Z,80.96
2023-04-15T19:31:39.580Z,80.98
2023-04-15T19:34:07.670Z,81.09
2023-04-15T19:36:36.066Z,81.35
2023-04-15T19:39:06.210Z,81.64
2023-04-15T19:41:34.717Z,81.89
2023-04-15T19:44:03.233Z,82.20
2023-04-15T19:46:33.156Z,82.31
2023-04-15T19:49:01.709Z,82.23
2023-04-15T19:51:29.896Z,82.40
2023-04-15T19:53:59.580Z,82.30
2023-04-15T19:56:27.873Z,82.40
2023-04-15T19:58:56.073Z,82.53
2023-04-15T20:01:24.297Z,82.50
2023-04-15T20:03:54.516Z,82.89
2023-04-15T20:06:23.117Z,83.19
2023-04-15T20:08:51.808Z,83.43
2023-04-15T20:11:20.181Z,83.52
2023-04-15T20:13:54.312Z,83.80
2023-04-15T20:16:22.501Z,84.05
2023-04-15T20:18:51.260Z,84.35
2023-04-15T20:21:20.832Z,84.65
2023-04-15T20:23:49.061Z,85.25
2023-04-15T20:26:18.226Z,85.42
2023-04-15T20:28:46.318Z,85.65
2023-04-15T20:31:14.494Z,85.42
2023-04-15T20:33:42.568Z,85.43
2023-04-15T20:36:10.621Z,85.95
2023-04-15T20:38:40.209Z,86.74
2023-04-15T20:41:08.238Z,87.53
2023-04-15T20:43:36.300Z,88.11
2023-04-15T20:46:13.870Z,88.12
2023-04-15T20:48:49.013Z,88.87
2023-04-15T20:51:17.124Z,89.13
2023-04-15T20:53:46.899Z,89.42
2023-04-15T20:56:15.157Z,89.59
2023-04-15T20:58:43.312Z,90.18
2023-04-15T21:01:11.369Z,90.25
2023-04-15T21:03:39.657Z,90.50
2023-04-15T21:06:08.040Z,90.63
2023-04-15T21:08:36.262Z,90.89
2023-04-15T21:11:05.935Z,91.31
2023-04-15T21:13:34.133Z,91.45
2023-04-15T21:16:02.442Z,91.37
2023-04-15T21:18:30.644Z,91.43
2023-04-15T21:20:59.307Z,91.69
2023-04-15T21:23:28.687Z,91.80
2023-04-15T21:25:56.736Z,91.63
2023-04-15T21:28:28.019Z,92.00
2023-04-15T21:30:56.800Z,91.74
2023-04-15T21:33:25.237Z,91.78
2023-04-15T21:35:54.353Z,91.66
2023-04-15T21:38:23.542Z,92.01
2023-04-15T21:40:52.026Z,91.76
2023-04-15T21:43:21.642Z,91.87
2023-04-15T21:46:21.213Z,91.90
2023-04-15T21:48:39.727Z,92.23
2023-04-15T21:51:07.936Z,92.17
2023-04-15T21:53:36.074Z,92.31
2023-04-15T21:56:04.403Z,92.65
2023-04-15T21:58:32.655Z,92.49
2023-04-15T22:01:02.363Z,92.49
2023-04-15T22:03:33.522Z,92.64
2023-04-15T22:06:02.414Z,93.01
2023-04-15T22:08:33.641Z,93.04
2023-04-15T22:11:07.056Z,93.04
2023-04-15T22:13:35.372Z,93.04
2023-04-15T22:16:04.924Z,93.11
2023-04-15T22:18:32.999Z,93.31
2023-04-15T22:21:01.787Z,93.09
2023-04-15T22:23:29.820Z,92.96
2023-04-15T22:25:58.135Z,92.98
2023-04-15T22:28:26.148Z,93.09
2023-04-15T22:30:54.774Z,92.83
2023-04-15T22:33:24.389Z,92.87
2023-04-15T22:35:52.437Z,93.10
2023-04-15T22:38:20.575Z,93.08
2023-04-15T22:40:48.645Z,92.77
2023-04-15T22:43:16.698Z,92.81
2023-04-15T22:45:51.021Z,92.88
2023-04-15T22:48:19.269Z,92.95
2023-04-15T22:50:49.006Z,93.15
2023-04-15T22:53:18.087Z,93.08
2023-04-15T22:55:47.718Z,93.29
2023-04-15T22:58:16.475Z,93.37
2023-04-15T23:00:44.551Z,93.46
2023-04-15T23:03:12.973Z,93.48
2023-04-15T23:05:41.587Z,93.64
2023-04-15T23:08:11.113Z,93.52
2023-04-15T23:10:40.115Z,93.33
2023-04-15T23:13:08.216Z,93.34
2023-04-15T23:15:36.647Z,93.13
2023-04-15T23:18:04.878Z,93.27
2023-04-15T23:20:33.109Z,93.40
2023-04-15T23:23:01.224Z,93.55
2023-04-15T23:25:30.815Z,93.49
2023-04-15T23:27:58.858Z,93.37
2023-04-15T23:30:27.064Z,93.69
2023-04-15T23:32:55.272Z,93.81
2023-04-15T23:35:23.716Z,93.85
2023-04-15T23:37:52.051Z,93.96
2023-04-15T23:40:20.193Z,93.78
2023-04-15T23:42:49.691Z,93.94
2023-04-15T23:45:17.795Z,94.02
2023-04-15T23:47:45.991Z,93.96
2023-04-15T23:50:14.260Z,94.11
2023-04-15T23:52:42.360Z,94.31
2023-04-15T23:55:11.175Z,94.46
2023-04-15T23:57:39.123Z,94.55
